Time;durP1;ratioP1;P1;durP2;ratioP2;P2;SDS_P1;SDS_P2;PMS_P1;PMS_P2;Temp;Humidity;BMP_temperature;BMP_pressure;BME280_temperature;BME280_humidity;BME280_pressure;Samples;Min_cycle;Max_cycle;Signal;HPM_P1;HPM_P2
2023/10/16 00:01:13;;;;;;;7.83;2.90;;;;;;;6.23;73.86;99914.74;1664783;85;25779;-62
2023/10/16 00:03:42;;;;;;;9.43;4.12;;;;;;;6.23;73.91;99910.71;1667464;86;25412;-62
2023/10/16 00:06:13;;;;;;;9.30;3.10;;;;;;;6.23;74.31;99905.34;1667275;86;25462;-62
2023/10/16 00:08:53;;;;;;;6.90;3.00;;;;;;;6.23;74.24;99907.50;1667303;86;25638;-62
2023/10/16 00:11:12;;;;;;;6.42;2.17;;;;;;;6.24;74.48;99906.95;1662898;85;27352;-63
2023/10/16 00:13:39;;;;;;;6.83;3.20;;;;;;;6.26;74.72;99904.77;1667280;86;25901;-64
2023/10/16 00:16:08;;;;;;;8.60;3.33;;;;;;;6.28;74.58;99907.44;1667292;85;25469;-62
2023/10/16 00:18:36;;;;;;;6.53;2.58;;;;;;;6.29;74.75;99898.27;1667259;85;25877;-63
2023/10/16 00:21:05;;;;;;;9.33;3.20;;;;;;;6.30;74.78;99897.20;1667500;86;25584;-63
2023/10/16 00:23:38;;;;;;;7.83;2.58;;;;;;;6.31;74.62;99907.39;1667555;86;27342;-63
2023/10/16 00:26:02;;;;;;;8.53;3.02;;;;;;;6.32;74.66;99903.63;1666879;85;25759;-62
2023/10/16 00:28:30;;;;;;;8.33;2.80;;;;;;;6.32;74.68;99897.70;1667414;86;25571;-62
2023/10/16 00:30:57;;;;;;;5.53;2.67;;;;;;;6.33;74.57;99895.28;1667419;86;25574;-64
2023/10/16 00:33:24;;;;;;;6.70;2.77;;;;;;;6.34;74.64;99900.89;1667494;86;25455;-64
2023/10/16 00:35:52;;;;;;;10.63;3.12;;;;;;;6.34;74.89;99887.45;1667486;86;27118;-63
2023/10/16 00:38:19;;;;;;;7.72;2.80;;;;;;;6.34;74.81;99895.52;1667333;86;25581;-63
2023/10/16 00:43:22;;;;;;;4.60;2.58;;;;;;;6.33;74.68;99899.31;1633038;87;26005;-63
2023/10/16 00:45:59;;;;;;;5.87;2.75;;;;;;;6.34;74.85;99904.13;1624598;88;25619;-63
2023/10/16 00:48:24;;;;;;;7.15;2.90;;;;;;;6.35;75.00;99905.70;1624486;88;27283;-62
2023/10/16 00:50:52;;;;;;;9.60;3.62;;;;;;;6.36;74.97;99902.73;1624452;88;25517;-62
2023/10/16 00:53:27;;;;;;;7.55;3.20;;;;;;;6.36;75.03;99898.70;1624495;88;25652;-63
2023/10/16 00:55:55;;;;;;;10.45;2.98;;;;;;;6.39;75.14;99909.98;1624522;88;25962;-63
2023/10/16 00:58:23;;;;;;;7.42;2.80;;;;;;;6.41;75.28;99900.53;1624548;88;25690;-63
2023/10/16 01:00:50;;;;;;;5.40;2.55;;;;;;;6.43;75.16;99904.27;1624485;88;27650;-62
2023/10/16 01:03:17;;;;;;;5.08;2.98;;;;;;;6.44;75.18;99912.05;1624417;88;25704;-62
2023/10/16 01:05:50;;;;;;;4.95;2.33;;;;;;;6.46;75.20;99913.09;1624577;88;25648;-63
2023/10/16 01:08:18;;;;;;;5.58;2.80;;;;;;;6.48;75.45;99910.36;1624411;88;25306;-63
2023/10/16 01:10:49;;;;;;;6.95;2.85;;;;;;;6.50;75.27;99909.55;1624687;88;25308;-62
2023/10/16 01:13:16;;;;;;;12.58;3.00;;;;;;;6.52;75.29;99913.27;1624556;88;27692;-62
2023/10/16 01:15:46;;;;;;;6.95;3.05;;;;;;;6.53;75.29;99906.81;1626667;88;25737;-63
2023/10/16 01:18:15;;;;;;;5.55;2.70;;;;;;;6.54;75.22;99912.45;1629485;85;25682;-64
2023/10/16 01:20:48;;;;;;;7.62;2.90;;;;;;;6.57;75.43;99907.02;1650877;86;25629;-62
2023/10/16 01:23:15;;;;;;;9.85;3.02;;;;;;;6.58;75.34;99904.60;1667991;85;25235;-62
2023/10/16 01:25:43;;;;;;;;;;;;;;;6.59;75.20;99916.93;1669514;86;27342;-62
2023/10/16 01:28:10;;;;;;;10.13;3.30;;;;;;;6.60;75.28;99911.82;1651404;86;25641;-63
2023/10/16 01:30:40;;;;;;;5.85;2.52;;;;;;;6.62;75.23;99913.11;1651604;86;25679;-63
2023/10/16 01:33:07;;;;;;;4.30;2.50;;;;;;;6.62;75.26;99913.11;1651892;86;25900;-62
2023/10/16 01:35:36;;;;;;;6.35;2.60;;;;;;;6.64;75.11;99912.83;1652162;86;25653;-63
2023/10/16 01:38:16;;;;;;;6.95;2.47;;;;;;;6.64;75.24;99916.33;1652040;86;27903;-63
2023/10/16 01:43:30;;;;;;;7.40;2.72;;;;;;;6.65;75.25;99920.59;1651748;86;25182;-63
2023/10/16 01:46:08;;;;;;;10.25;3.00;;;;;;;6.67;75.35;99908.22;1651509;86;26315;-63
2023/10/16 01:48:42;;;;;;;4.92;2.45;;;;;;;6.67;75.23;99927.81;1651546;86;25556;-63
2023/10/16 01:51:09;;;;;;;5.15;2.30;;;;;;;6.68;75.32;99925.95;1651521;86;27352;-63
2023/10/16 01:53:37;;;;;;;7.92;3.35;;;;;;;6.68;75.26;99928.09;1651434;86;25637;-62
2023/10/16 01:56:12;;;;;;;7.17;3.05;;;;;;;6.69;75.29;99921.62;1651519;86;25423;-62
2023/10/16 01:58:33;;;;;;;9.48;2.52;;;;;;;6.72;75.30;99923.73;1650959;86;26083;-62
2023/10/16 02:01:00;;;;;;;8.60;2.62;;;;;;;6.74;75.37;99930.14;1651530;86;25622;-62
2023/10/16 02:03:48;;;;;;;8.60;3.17;;;;;;;6.75;75.23;99941.72;1651531;86;28136;-62
2023/10/16 02:06:19;;;;;;;8.15;2.90;;;;;;;6.76;75.20;99940.61;1723553;83;25387;-63
2023/10/16 02:08:48;;;;;;;8.23;2.70;;;;;;;6.77;75.26;99944.34;1723535;83;25513;-62
2023/10/16 02:11:16;;;;;;;7.42;2.90;;;;;;;6.80;75.25;99942.98;1723549;83;25673;-63
2023/10/16 02:13:45;;;;;;;7.87;2.52;;;;;;;6.80;75.34;99937.05;1723620;83;25592;-63
2023/10/16 02:16:13;;;;;;;9.68;2.87;;;;;;;6.83;75.45;99949.91;1723739;83;27920;-63
2023/10/16 02:18:40;;;;;;;7.33;2.75;;;;;;;6.85;75.68;99944.25;1723516;83;25772;-63
2023/10/16 02:21:12;;;;;;;5.17;2.40;;;;;;;6.84;75.72;99942.64;1723575;83;25396;-63
2023/10/16 02:23:43;;;;;;;4.62;2.62;;;;;;;6.85;75.84;99952.31;1723082;83;25459;-63
2023/10/16 02:26:11;;;;;;;4.97;2.42;;;;;;;6.85;75.85;99952.31;1723636;83;25407;-62
2023/10/16 02:28:46;;;;;;;6.97;2.70;;;;;;;6.84;76.06;99955.53;1723812;83;27401;-63
2023/10/16 02:31:16;;;;;;;6.42;3.52;;;;;;;6.84;75.93;99952.05;1723263;83;25864;-62
2023/10/16 02:33:55;;;;;;;7.50;3.15;;;;;;;6.85;75.88;99959.03;1723615;82;25571;-62
2023/10/16 02:36:24;;;;;;;7.87;2.35;;;;;;;6.85;75.78;99972.48;1723687;83;32453;-64
2023/10/16 02:38:55;;;;;;;8.48;2.67;;;;;;;6.83;75.71;99967.39;1723836;83;25562;-63
2023/10/16 02:41:21;;;;;;;;;;;;;;;6.83;75.73;99968.73;1725851;83;27355;-64
2023/10/16 02:43:49;;;;;;;6.50;2.42;;;;;;;6.84;75.79;99974.34;1723516;82;25556;-65
2023/10/16 02:46:21;;;;;;;6.62;3.02;;;;;;;6.84;75.92;99978.93;1723586;83;25617;-63
2023/10/16 02:48:53;;;;;;;7.95;2.40;;;;;;;6.83;75.75;99973.31;1723546;83;25881;-63
2023/10/16 02:51:20;;;;;;;8.63;2.67;;;;;;;6.86;75.84;99980.78;1723413;83;25592;-63
2023/10/16 02:53:49;;;;;;;5.53;2.40;;;;;;;6.87;75.71;99973.77;1723745;83;27330;-63
2023/10/16 02:56:17;;;;;;;8.15;2.83;;;;;;;6.86;75.65;99984.81;1723518;82;25597;-63
2023/10/16 02:58:54;;;;;;;5.97;2.50;;;;;;;6.85;75.60;99967.89;1723889;83;25377;-63
2023/10/16 03:01:15;;;;;;;6.95;2.37;;;;;;;6.86;75.68;99976.22;1721518;83;35077;-63
2023/10/16 03:03:45;;;;;;;5.78;2.27;;;;;;;6.86;75.66;99969.50;1723862;82;26970;-63
2023/10/16 03:06:12;;;;;;;6.22;2.37;;;;;;;6.87;75.68;99975.66;1736856;82;27333;-63
2023/10/16 03:08:45;;;;;;;6.35;2.83;;;;;;;6.89;75.63;99975.61;1741367;82;25614;-63
2023/10/16 03:11:13;;;;;;;7.35;2.98;;;;;;;6.90;75.75;99971.84;1742665;82;25480;-63
2023/10/16 03:13:37;;;;;;;6.20;2.87;;;;;;;6.89;75.67;99974.27;1742524;82;26019;-63
2023/10/16 03:16:07;;;;;;;7.30;2.52;;;;;;;6.91;75.62;99979.36;1743200;82;25703;-63
2023/10/16 03:18:35;;;;;;;5.85;2.65;;;;;;;6.90;75.69;99979.91;1743196;82;27321;-63
2023/10/16 03:21:26;;;;;;;6.55;3.22;;;;;;;6.91;75.71;99971.29;1743080;82;25462;-64
2023/10/16 03:23:39;;;;;;;6.40;2.77;;;;;;;6.90;75.72;99975.88;1739218;82;25510;-64
2023/10/16 03:26:08;;;;;;;7.95;2.80;;;;;;;6.93;75.79;99978.55;1742801;82;25569;-63
2023/10/16 03:28:35;;;;;;;7.28;2.65;;;;;;;6.94;75.72;99986.84;1743185;82;25559;-64
2023/10/16 03:31:03;;;;;;;4.30;2.35;;;;;;;6.95;75.73;99988.45;1743170;82;27925;-64
2023/10/16 03:33:32;;;;;;;8.95;2.70;;;;;;;6.96;75.72;99989.25;1743068;82;25650;-64
2023/10/16 03:36:02;;;;;;;7.87;2.22;;;;;;;6.97;75.80;99990.86;1743290;82;25625;-64
2023/10/16 03:38:35;;;;;;;5.27;2.70;;;;;;;6.97;75.68;100000.27;1743149;82;25389;-64
2023/10/16 03:40:56;;;;;;;6.22;3.33;;;;;;;6.98;75.73;99999.98;1741828;82;25573;-63
2023/10/16 03:43:23;;;;;;;5.20;2.08;;;;;;;6.96;75.66;99996.76;1743155;82;27984;-63
2023/10/16 03:45:50;;;;;;;5.70;2.50;;;;;;;6.97;75.68;100002.41;1743098;82;25616;-63
2023/10/16 03:48:17;;;;;;;4.58;2.30;;;;;;;6.98;75.79;100004.02;1743128;82;25393;-61
2023/10/16 03:50:44;;;;;;;5.65;2.22;;;;;;;6.99;75.69;100009.63;1743126;82;25477;-63
2023/10/16 03:53:13;;;;;;;9.78;2.60;;;;;;;7.01;75.68;100007.99;1743263;81;25465;-62
2023/10/16 03:55:48;;;;;;;6.65;2.55;;;;;;;7.01;75.74;100015.51;1743306;82;27402;-62
2023/10/16 03:58:16;;;;;;;6.17;2.85;;;;;;;7.02;75.69;100012.30;1743238;82;25685;-63
2023/10/16 04:00:53;;;;;;;5.22;2.75;;;;;;;7.02;75.76;100020.36;1743302;81;25564;-62
2023/10/16 04:03:22;;;;;;;6.37;2.65;;;;;;;7.00;75.72;100010.42;1743366;82;26359;-63
2023/10/16 04:05:50;;;;;;;;;;;;;;;7.00;75.76;100009.89;1739666;82;25434;-63
2023/10/16 04:08:23;;;;;;;6.87;3.27;;;;;;;7.01;75.84;100014.16;1733302;82;27319;-62
2023/10/16 04:10:53;;;;;;;4.85;3.05;;;;;;;6.99;75.85;100011.52;1733249;82;25633;-62
2023/10/16 04:13:25;;;;;;;;;;;;;;;6.99;75.84;100011.52;1735904;82;25449;-62
2023/10/16 04:31:55;;;;;;;5.65;3.10;;;;;;;6.92;76.07;100023.98;1733478;82;25555;-61
2023/10/16 04:53:08;;;;;;;5.42;3.37;;;;;;;6.79;76.71;100032.77;1733426;82;29679;-62
2023/10/16 05:11:32;;;;;;;8.20;4.35;;;;;;;6.78;77.20;100053.48;1733277;82;25595;-62
2023/10/16 05:22:03;;;;;;;6.90;4.03;;;;;;;6.83;77.44;100061.48;1733205;82;25648;-63
2023/10/16 06:14:20;;;;;;;12.07;4.62;;;;;;;7.19;77.48;100124.75;1738712;82;25473;-62
2023/10/16 06:16:53;;;;;;;10.93;4.72;;;;;;;7.18;77.76;100133.34;1738655;82;26541;-62
2023/10/16 06:19:19;;;;;;;10.45;4.85;;;;;;;7.18;78.07;100141.97;1738697;81;25659;-63
2023/10/16 06:21:54;;;;;;;7.50;3.33;;;;;;;7.14;78.37;100134.23;1738686;82;27102;-62
2023/10/16 06:24:33;;;;;;;9.23;3.40;;;;;;;7.07;78.45;100132.69;1738653;81;25450;-62
2023/10/16 06:27:10;;;;;;;6.67;3.67;;;;;;;7.02;78.85;100129.28;1738722;82;25552;-64
2023/10/16 06:29:51;;;;;;;8.88;4.17;;;;;;;7.00;79.29;100132.77;1738640;81;26004;-62
2023/10/16 06:32:22;;;;;;;8.30;3.20;;;;;;;6.96;79.99;100139.83;1738785;82;25387;-63
2023/10/16 06:34:57;;;;;;;10.23;4.20;;;;;;;6.94;80.30;100143.36;1738398;82;27336;-62
2023/10/16 06:37:21;;;;;;;7.78;3.37;;;;;;;6.87;79.93;100140.47;1738218;82;25378;-63
2023/10/16 06:39:54;;;;;;;10.70;3.60;;;;;;;6.86;80.16;100136.72;1738711;82;25385;-63
2023/10/16 06:42:18;;;;;;;12.28;4.00;;;;;;;6.86;80.36;100140.23;1738477;82;25568;-63
2023/10/16 06:44:50;;;;;;;7.72;4.05;;;;;;;6.83;80.38;100143.48;1738455;82;25615;-63
2023/10/16 06:47:23;;;;;;;8.10;3.17;;;;;;;6.85;80.71;100145.89;1738761;82;27315;-63
2023/10/16 06:49:46;;;;;;;;;;;;;;;6.87;80.93;100144.50;1740719;82;25344;-62
2023/10/16 06:52:13;;;;;;;8.00;3.85;;;;;;;6.86;80.83;100142.09;1738801;82;25671;-62
2023/10/16 06:54:40;;;;;;;6.72;3.85;;;;;;;6.87;81.17;100139.13;1738679;82;25952;-61
2023/10/16 06:57:13;;;;;;;9.75;4.95;;;;;;;6.88;81.01;100152.83;1738803;81;25435;-62
2023/10/16 06:59:42;;;;;;;11.22;4.08;;;;;;;6.91;81.10;100153.61;1738752;82;28034;-62
2023/10/16 07:02:19;;;;;;;7.62;4.08;;;;;;;6.94;81.05;100160.28;1738769;82;25395;-62
2023/10/16 07:04:46;;;;;;;10.48;4.10;;;;;;;6.98;81.22;100155.13;1738483;82;25385;-63
2023/10/16 07:07:16;;;;;;;6.60;3.55;;;;;;;7.02;81.26;100163.69;1738575;82;25610;-63
2023/10/16 07:09:51;;;;;;;10.25;4.50;;;;;;;7.03;81.08;100163.13;1738702;82;25630;-62
2023/10/16 07:12:19;;;;;;;7.55;4.00;;;;;;;7.04;80.91;100177.64;1738763;82;27338;-63
2023/10/16 07:14:55;;;;;;;12.40;4.12;;;;;;;7.04;80.85;100166.88;1738627;82;25821;-63
2023/10/16 07:17:25;;;;;;;8.53;3.80;;;;;;;7.05;80.83;100179.25;1738768;82;25543;-62
2023/10/16 07:19:59;;;;;;;9.70;4.28;;;;;;;7.06;80.74;100178.70;1717935;82;25979;-62
2023/10/16 07:22:33;;;;;;;7.58;3.87;;;;;;;7.08;80.74;100176.52;1738730;82;25455;-61
2023/10/16 07:25:25;;;;;;;9.90;4.40;;;;;;;7.09;80.57;100179.47;1738683;82;27408;-63
2023/10/16 07:27:57;;;;;;;11.68;4.78;;;;;;;7.13;80.69;100187.77;1738641;81;25393;-62
2023/10/16 07:30:25;;;;;;;10.63;4.15;;;;;;;7.15;80.48;100179.67;1738566;82;25544;-63
2023/10/16 07:32:54;;;;;;;12.25;4.53;;;;;;;7.17;80.46;100192.29;1738620;82;25603;-63
2023/10/16 07:35:24;;;;;;;8.70;3.87;;;;;;;7.20;80.73;100188.20;1738764;81;25386;-64
2023/10/16 07:37:56;;;;;;;;;;;;;;;7.23;80.29;100193.81;1741253;82;27266;-62
2023/10/16 07:40:26;;;;;;;8.80;4.47;;;;;;;7.27;80.56;100189.47;1738619;82;25657;-63
2023/10/16 07:42:53;;;;;;;;;;;;;;;7.31;80.19;100194.28;1741253;82;25441;-64
2023/10/16 07:45:20;;;;;;;9.05;4.08;;;;;;;7.33;80.18;100196.92;1738647;82;26430;-63
2023/10/16 07:47:51;;;;;;;8.23;4.08;;;;;;;7.37;80.20;100195.80;1738692;82;25450;-63
2023/10/16 07:50:19;;;;;;;9.48;4.47;;;;;;;7.41;79.82;100191.45;1738646;82;27314;-63
2023/10/16 07:52:46;;;;;;;7.55;4.72;;;;;;;7.44;79.89;100197.05;1738577;82;25702;-64
2023/10/16 07:55:27;;;;;;;11.97;4.55;;;;;;;7.50;79.89;100192.38;1738642;82;25449;-63
2023/10/16 07:57:48;;;;;;;9.30;4.00;;;;;;;7.57;79.86;100204.93;1737669;82;25638;-63
2023/10/16 08:00:15;;;;;;;11.20;4.30;;;;;;;7.59;79.05;100199.26;1738663;82;25555;-63
2023/10/16 08:02:45;;;;;;;11.10;4.08;;;;;;;7.63;79.46;100198.95;1738624;82;27532;-62
2023/10/16 08:05:15;;;;;;;7.83;3.47;;;;;;;7.71;79.31;100196.92;1738608;82;34940;-63
2023/10/16 08:07:49;;;;;;;11.15;3.98;;;;;;;7.74;78.87;100196.34;1730258;82;25955;-62
2023/10/16 08:10:40;;;;;;;11.33;4.22;;;;;;;7.79;78.82;100203.55;1728147;82;26476;-62
2023/10/16 08:12:56;;;;;;;11.18;4.97;;;;;;;7.84;78.42;100200.23;1726397;82;25542;-63
2023/10/16 08:15:27;;;;;;;15.98;5.47;;;;;;;7.86;78.37;100198.03;1728267;83;27324;-62
2023/10/16 08:17:52;;;;;;;10.35;4.05;;;;;;;7.93;78.34;100204.96;1728039;82;25814;-61
2023/10/16 08:20:19;;;;;;;15.88;4.30;;;;;;;7.95;77.97;100206.28;1728171;83;25624;-62
2023/10/16 08:22:47;;;;;;;5.30;3.02;;;;;;;7.99;77.75;100205.94;1728141;83;26475;-61
2023/10/16 08:25:30;;;;;;;7.78;2.87;;;;;;;8.04;77.51;100211.80;1728184;83;25584;-61
2023/10/16 08:27:52;;;;;;;7.67;3.30;;;;;;;8.07;77.00;100214.44;1726839;82;27895;-61
2023/10/16 08:30:18;;;;;;;6.20;3.22;;;;;;;8.07;76.93;100209.87;1728177;83;25556;-61
2023/10/16 08:35:24;;;;;;;6.65;2.75;;;;;;;8.13;76.41;100224.05;1728132;83;25614;-62
2023/10/16 08:37:58;;;;;;;6.47;2.92;;;;;;;8.13;76.19;100218.10;1726836;82;25545;-61
2023/10/16 08:40:35;;;;;;;8.45;2.70;;;;;;;8.14;76.04;100218.37;1728235;83;27894;-62
2023/10/16 08:43:04;;;;;;;9.50;3.70;;;;;;;8.19;76.14;100214.24;1728242;83;25592;-62
2023/10/16 08:45:39;;;;;;;10.03;2.45;;;;;;;8.22;76.08;100220.92;1728392;83;25208;-63
2023/10/16 08:48:06;;;;;;;7.70;2.98;;;;;;;8.29;76.32;100225.94;1727953;82;26257;-63
2023/10/16 08:50:43;;;;;;;;;;;;;;;8.37;76.54;100232.00;1730861;83;25642;-63
2023/10/16 08:53:30;;;;;;;9.90;3.77;;;;;;;8.43;75.78;100231.39;1728339;82;27453;-62
2023/10/16 08:56:07;;;;;;;6.42;3.45;;;;;;;8.49;75.95;100226.97;1728311;83;25409;-62
2023/10/16 08:58:49;;;;;;;5.42;2.52;;;;;;;8.56;75.43;100236.84;1728160;82;25655;-64
2023/10/16 09:01:18;;;;;;;10.03;2.83;;;;;;;8.60;74.82;100229.75;1728275;83;26054;-62
2023/10/16 09:04:05;;;;;;;7.70;2.83;;;;;;;8.64;74.18;100235.34;1728464;82;32292;-63
2023/10/16 09:06:38;;;;;;;8.40;3.47;;;;;;;8.69;74.33;100235.25;1728965;82;27345;-61
2023/10/16 09:09:13;;;;;;;11.12;3.33;;;;;;;8.78;74.53;100229.44;1733194;82;25789;-62
2023/10/16 09:11:43;;;;;;;6.53;2.90;;;;;;;8.88;74.25;100227.63;1733237;82;25548;-62
2023/10/16 09:14:17;;;;;;;;;;;;;;;8.97;74.10;100230.69;1735767;82;25741;-61
2023/10/16 09:16:55;;;;;;;7.90;2.40;;;;;;;9.07;73.83;100233.72;1733314;82;25571;-59
2023/10/16 09:19:35;;;;;;;7.37;2.12;;;;;;;9.11;72.84;100231.25;1712470;82;27331;-61
2023/10/16 09:22:08;;;;;;;7.47;2.37;;;;;;;9.09;72.20;100242.86;1733187;82;25447;-61
2023/10/16 09:24:36;;;;;;;6.03;2.45;;;;;;;9.08;72.28;100238.59;1733175;82;25655;-61
2023/10/16 09:27:18;;;;;;;5.15;2.02;;;;;;;9.12;72.15;100232.27;1733195;82;25700;-61
2023/10/16 09:29:56;;;;;;;7.92;2.50;;;;;;;9.17;72.10;100242.17;1733216;82;25546;-61
2023/10/16 09:32:30;;;;;;;9.55;3.08;;;;;;;9.16;71.54;100241.94;1733249;82;27342;-61
2023/10/16 09:35:04;;;;;;;4.55;2.08;;;;;;;9.15;71.52;100243.02;1733121;82;25534;-62
2023/10/16 09:37:34;;;;;;;6.55;2.35;;;;;;;9.13;71.16;100245.23;1732425;82;25568;-60
2023/10/16 09:39:56;;;;;;;5.97;1.85;;;;;;;9.11;70.90;100242.83;1731961;82;25622;-61
2023/10/16 09:42:25;;;;;;;5.53;2.15;;;;;;;9.07;70.70;100243.72;1733204;82;25462;-61
2023/10/16 09:45:18;;;;;;;5.95;2.00;;;;;;;9.06;70.85;100248.33;1733358;82;27342;-59
2023/10/16 09:47:27;;;;;;;7.92;2.27;;;;;;;9.04;70.45;100249.71;1722612;82;26296;-61
2023/10/16 09:50:16;;;;;;;6.85;2.30;;;;;;;8.98;70.53;100252.51;1733188;82;25525;-60
2023/10/16 09:52:31;;;;;;;4.03;2.75;;;;;;;8.97;70.62;100250.92;1730908;82;26162;-61
2023/10/16 09:55:05;;;;;;;9.08;2.65;;;;;;;8.91;70.21;100258.06;1733226;82;25627;-61
2023/10/16 09:57:32;;;;;;;8.30;2.40;;;;;;;8.88;70.42;100254.05;1732840;82;27774;-60
2023/10/16 10:02:46;;;;;;;5.17;2.70;;;;;;;8.77;70.50;100252.66;1733210;82;25600;-59
2023/10/16 10:05:21;;;;;;;8.63;3.12;;;;;;;8.70;70.86;100261.13;1733138;82;25567;-62
2023/10/16 10:07:47;;;;;;;;;;;;;;;8.66;71.21;100252.57;1729546;82;25557;-60
2023/10/16 10:13:08;;;;;;;8.48;3.33;;;;;;;8.50;70.85;100255.53;1736834;82;25575;-57
2023/10/16 10:15:35;;;;;;;7.87;2.58;;;;;;;8.43;70.87;100262.39;1735275;82;25439;-55
2023/10/16 10:20:58;;;;;;;5.50;2.40;;;;;;;8.32;71.26;100267.13;1736969;82;25610;-61
2023/10/16 10:23:18;;;;;;;9.15;2.98;;;;;;;8.31;71.10;100255.55;1735854;82;27887;-61
2023/10/16 10:25:46;;;;;;;6.30;2.50;;;;;;;8.27;70.99;100253.73;1736747;82;25627;-62
2023/10/16 10:28:25;;;;;;;5.03;2.30;;;;;;;8.26;71.56;100268.28;1736836;82;25622;-62
2023/10/16 10:30:56;;;;;;;4.45;2.25;;;;;;;8.23;71.81;100262.40;1736184;82;25635;-62
2023/10/16 10:33:43;;;;;;;4.40;2.42;;;;;;;8.18;71.97;100273.25;1736865;82;25627;-62
2023/10/16 10:36:34;;;;;;;5.90;2.60;;;;;;;8.16;72.31;100271.97;1683913;85;27353;-61
2023/10/16 10:42:03;;;;;;;5.87;2.40;;;;;;;8.07;72.32;100270.48;1683934;85;25609;-61
2023/10/16 10:44:32;;;;;;;6.47;2.42;;;;;;;8.02;72.63;100274.59;1683906;85;26210;-61
2023/10/16 10:47:05;;;;;;;5.47;2.57;;;;;;;8.00;72.85;100274.89;1684165;85;25632;-61
2023/10/16 10:49:33;;;;;;;8.15;3.05;;;;;;;7.99;73.28;100270.58;1683928;85;27856;-61
2023/10/16 10:52:06;;;;;;;10.75;3.15;;;;;;;7.98;72.71;100271.66;1683928;85;25888;-62
2023/10/16 10:54:34;;;;;;;8.03;3.55;;;;;;;7.98;72.77;100273.56;1683936;85;25538;-61
2023/10/16 10:57:09;;;;;;;9.73;3.25;;;;;;;8.01;72.97;100269.73;1683885;85;25826;-62
2023/10/16 10:59:47;;;;;;;8.28;2.95;;;;;;;8.05;72.25;100268.60;1683953;85;25521;-61
2023/10/16 11:04:54;;;;;;;7.65;2.67;;;;;;;8.12;72.15;100276.31;1683867;85;25994;-62
2023/10/16 11:07:28;;;;;;;5.67;2.83;;;;;;;8.19;71.90;100276.77;1683791;85;25638;-63
2023/10/16 11:09:57;;;;;;;6.62;3.35;;;;;;;8.21;71.67;100283.45;1688337;85;26590;-64
2023/10/16 11:12:25;;;;;;;11.97;3.87;;;;;;;8.27;71.36;100282.03;1706270;82;25483;-65
2023/10/16 11:14:53;;;;;;;6.87;2.87;;;;;;;8.30;71.50;100276.84;1741559;82;27896;-64
2023/10/16 11:17:35;;;;;;;8.18;3.00;;;;;;;8.35;71.10;100278.67;1745683;82;25627;-64
2023/10/16 11:22:46;;;;;;;7.95;2.30;;;;;;;8.41;70.83;100273.43;1748961;82;26042;-63
2023/10/16 11:25:15;;;;;;;8.13;2.58;;;;;;;8.41;69.89;100274.78;1748873;82;25647;-60
2023/10/16 11:27:44;;;;;;;5.37;2.27;;;;;;;8.40;70.16;100274.55;1747780;82;27423;-62
2023/10/16 11:30:14;;;;;;;6.25;2.52;;;;;;;8.43;69.97;100264.56;1747557;82;25591;-62
2023/10/16 11:32:49;;;;;;;6.70;2.37;;;;;;;8.46;69.73;100265.30;1747565;82;25698;-62
2023/10/16 11:35:18;;;;;;;8.43;3.40;;;;;;;8.46;69.79;100261.25;1748604;82;25719;-60
2023/10/16 11:37:52;;;;;;;4.97;1.87;;;;;;;8.54;69.91;100272.70;1749096;82;25394;-62
2023/10/16 11:40:31;;;;;;;5.62;2.60;;;;;;;8.60;69.05;100268.05;1749033;82;27695;-59
2023/10/16 11:42:51;;;;;;;5.95;2.40;;;;;;;8.70;68.93;100254.39;1746904;82;25566;-58
2023/10/16 11:45:20;;;;;;;5.60;2.10;;;;;;;8.81;69.17;100259.04;1748963;82;25614;-60
2023/10/16 11:50:40;;;;;;;4.75;2.42;;;;;;;9.02;68.70;100271.59;1748950;82;25386;-57
2023/10/16 11:53:08;;;;;;;7.37;2.52;;;;;;;9.11;68.46;100259.58;1748957;81;28047;-58
2023/10/16 11:55:39;;;;;;;5.47;2.12;;;;;;;9.18;68.14;100257.27;1748877;82;25372;-59
2023/10/16 11:58:07;;;;;;;10.28;3.10;;;;;;;9.23;68.05;100263.92;1748975;82;25467;-59
2023/10/16 12:00:45;;;;;;;5.60;2.47;;;;;;;9.30;67.90;100263.52;1748921;82;25617;-59
2023/10/16 12:03:07;;;;;;;8.43;2.70;;;;;;;9.30;67.32;100264.31;1747759;82;25451;-59
2023/10/16 12:05:37;;;;;;;5.28;1.92;;;;;;;9.30;66.90;100275.66;1748943;82;27289;-59
2023/10/16 12:08:07;;;;;;;;;;;;;;;9.26;66.68;100270.08;1753424;81;25619;-59
2023/10/16 12:10:36;;;;;;;4.37;2.08;;;;;;;9.23;66.30;100275.25;1747611;81;25537;-58
2023/10/16 12:13:04;;;;;;;6.87;2.90;;;;;;;9.19;65.82;100266.95;1741233;82;26282;-55
2023/10/16 12:15:31;;;;;;;10.45;2.22;;;;;;;9.17;66.34;100273.20;1741162;82;25458;-59
2023/10/16 12:18:01;;;;;;;4.75;1.90;;;;;;;9.15;66.37;100281.59;1741156;82;27369;-59
2023/10/16 12:20:27;;;;;;;6.50;2.30;;;;;;;9.14;66.28;100281.36;1741349;82;25189;-58
2023/10/16 12:22:54;;;;;;;8.93;2.33;;;;;;;9.14;65.94;100269.75;1741133;82;25387;-58
2023/10/16 12:25:23;;;;;;;5.35;2.17;;;;;;;9.15;65.80;100278.90;1741124;82;25618;-60
2023/10/16 12:27:53;;;;;;;7.55;2.47;;;;;;;9.20;66.27;100278.01;1741329;82;25212;-60
2023/10/16 12:30:19;;;;;;;;;;;;;;;9.30;66.32;100272.97;1743711;82;27228;-60
2023/10/16 12:32:46;;;;;;;5.80;1.95;;;;;;;9.34;65.15;100276.66;1741082;82;25211;-60
2023/10/16 12:35:17;;;;;;;10.13;2.35;;;;;;;9.38;65.57;100286.30;1741161;82;25567;-60
2023/10/16 12:37:42;;;;;;;6.42;2.40;;;;;;;9.46;65.71;100276.14;1740899;82;25612;-60
2023/10/16 12:43:02;;;;;;;7.42;2.02;;;;;;;9.64;65.51;100276.58;1741161;82;27215;-60
2023/10/16 12:45:29;;;;;;;9.73;2.20;;;;;;;9.63;64.61;100270.13;1693017;84;25805;-61
2023/10/16 12:47:56;;;;;;;4.50;2.27;;;;;;;9.60;64.84;100274.77;1659410;86;25731;-62
2023/10/16 12:50:24;;;;;;;10.32;2.40;;;;;;;9.61;64.53;100282.58;1704127;81;26375;-62
2023/10/16 12:52:54;;;;;;;6.20;1.90;;;;;;;9.59;64.45;100278.59;1719776;83;25429;-62
2023/10/16 12:55:22;;;;;;;6.75;1.92;;;;;;;9.85;64.34;100275.56;1719655;83;27813;-62
2023/10/16 12:57:55;;;;;;;6.03;2.40;;;;;;;10.30;64.02;100276.19;1720015;83;25588;-62
2023/10/16 13:00:23;;;;;;;5.58;2.08;;;;;;;10.45;63.44;100277.73;1719870;83;25228;-62
2023/10/16 13:02:52;;;;;;;6.10;1.90;;;;;;;10.65;62.61;100283.19;1720102;83;25980;-62
2023/10/16 13:05:24;;;;;;;4.35;1.95;;;;;;;10.63;61.83;100285.41;1719977;83;25592;-62
2023/10/16 13:07:50;;;;;;;5.55;1.70;;;;;;;10.63;62.40;100286.20;1719620;83;27335;-62
2023/10/16 13:10:26;;;;;;;10.03;2.10;;;;;;;10.70;61.70;100285.77;1754675;80;26036;-62
2023/10/16 13:12:50;;;;;;;5.12;2.15;;;;;;;10.67;61.36;100280.97;1779692;80;25417;-62
2023/10/16 13:15:29;;;;;;;4.40;2.42;;;;;;;10.58;60.94;100281.48;1780192;80;25602;-63
2023/10/16 13:17:57;;;;;;;9.30;1.95;;;;;;;10.54;60.92;100288.06;1780510;80;25461;-62
2023/10/16 13:20:29;;;;;;;5.28;2.37;;;;;;;10.40;60.25;100286.79;1780219;80;27345;-63
2023/10/16 13:22:58;;;;;;;8.30;3.15;;;;;;;10.30;60.08;100269.43;1780341;80;25359;-63
2023/10/16 13:25:35;;;;;;;12.03;3.17;;;;;;;10.31;61.10;100281.03;1780546;80;25530;-64
2023/10/16 13:28:03;;;;;;;4.67;2.52;;;;;;;10.51;61.43;100277.86;1780276;80;26255;-63
2023/10/16 13:30:31;;;;;;;5.30;2.15;;;;;;;10.95;61.69;100284.87;1780269;80;25632;-62
2023/10/16 13:33:06;;;;;;;9.50;2.08;;;;;;;11.15;59.73;100286.20;1780193;80;27268;-63
2023/10/16 13:35:26;;;;;;;7.55;2.62;;;;;;;11.10;58.90;100283.64;1778833;80;25612;-62
2023/10/16 13:37:52;;;;;;;3.60;2.17;;;;;;;11.09;58.25;100291.53;1780236;80;25514;-62
2023/10/16 13:40:24;;;;;;;7.97;1.92;;;;;;;11.10;58.08;100287.17;1780150;80;26271;-60
2023/10/16 13:42:54;;;;;;;6.97;2.77;;;;;;;11.06;57.79;100286.18;1780286;80;25400;-61
2023/10/16 13:45:25;;;;;;;7.35;2.30;;;;;;;11.01;57.28;100284.96;1780266;80;27700;-65
2023/10/16 13:47:53;;;;;;;11.22;3.25;;;;;;;10.92;57.46;100292.25;1780206;80;25929;-64
2023/10/16 13:50:25;;;;;;;8.95;2.25;;;;;;;10.90;57.77;100289.07;1778145;80;25576;-64
2023/10/16 13:52:54;;;;;;;3.98;1.70;;;;;;;10.88;57.78;100293.44;1774638;80;25595;-64
2023/10/16 13:55:22;;;;;;;6.67;2.20;;;;;;;10.85;57.37;100288.64;1775059;80;25417;-64
2023/10/16 13:57:54;;;;;;;9.17;2.43;;;;;;;10.77;57.18;100294.23;1755293;80;28069;-64
2023/10/16 14:00:31;;;;;;;5.30;2.33;;;;;;;10.70;57.32;100289.83;1774786;80;26018;-64
2023/10/16 14:05:47;;;;;;;7.12;2.12;;;;;;;10.50;57.35;100290.34;1774691;80;26360;-62
2023/10/16 14:08:17;;;;;;;5.20;2.02;;;;;;;10.44;57.39;100292.38;1774760;80;25607;-62
2023/10/16 14:10:46;;;;;;;9.50;2.47;;;;;;;10.58;59.17;100286.89;1774651;80;28004;-62
2023/10/16 14:13:21;;;;;;;7.83;2.72;;;;;;;10.75;56.89;100289.69;1774629;80;25553;-63